createdAt,value
2019-04-01T00:00:16.594Z,6.31
2019-04-01T00:00:49.262Z,6.31
2019-04-01T00:01:17.030Z,6.31
2019-04-01T00:01:46.903Z,6.31
2019-04-01T00:02:16.811Z,6.31
2019-04-01T00:02:49.450Z,6.31
2019-04-01T00:03:16.825Z,6.31
2019-04-01T00:03:46.614Z,6.31
2019-04-01T00:04:18.522Z,6.31
2019-04-01T00:04:46.617Z,6.25
2019-04-01T00:05:16.899Z,6.25
2019-04-01T00:05:46.673Z,6.25
2019-04-01T00:06:18.769Z,6.25
2019-04-01T00:06:47.954Z,6.25
2019-04-01T00:07:16.739Z,6.25
2019-04-01T00:07:47.066Z,6.25
2019-04-01T00:08:16.857Z,6.25
2019-04-01T00:08:46.942Z,6.25
2019-04-01T00:09:16.880Z,6.19
2019-04-01T00:09:47.062Z,6.19
2019-04-01T00:10:18.112Z,6.19
2019-04-01T00:10:47.052Z,6.19
2019-04-01T00:11:16.918Z,6.19
2019-04-01T00:11:47.212Z,6.12
2019-04-01T00:12:17.164Z,6.12
2019-04-01T00:12:46.914Z,6.12
2019-04-01T00:13:16.821Z,6.19
2019-04-01T00:13:47.403Z,6.25
2019-04-01T00:14:17.017Z,6.25
2019-04-01T00:14:47.105Z,6.25
2019-04-01T00:15:17.105Z,6.31
2019-04-01T00:15:46.872Z,6.25
2019-04-01T00:16:17.194Z,6.25
2019-04-01T00:16:47.130Z,6.25
2019-04-01T00:17:16.969Z,6.25
2019-04-01T00:17:46.967Z,6.25
2019-04-01T00:18:17.289Z,6.37
2019-04-01T00:18:47.029Z,6.37
2019-04-01T00:19:17.254Z,6.37
2019-04-01T00:19:47.031Z,6.37
2019-04-01T00:20:17.078Z,6.31
2019-04-01T00:20:47.349Z,6.25
2019-04-01T00:21:17.011Z,6.25
2019-04-01T00:21:47.364Z,6.19
2019-04-01T00:22:17.146Z,6.19
2019-04-01T00:22:47.375Z,6.19
2019-04-01T00:23:17.204Z,6.25
2019-04-01T00:23:47.185Z,6.19
2019-04-01T00:24:17.090Z,6.19
2019-04-01T00:24:47.650Z,6.19
2019-04-01T00:25:17.271Z,6.19
2019-04-01T00:25:47.180Z,6.19
2019-04-01T00:26:17.298Z,6.25
2019-04-01T00:26:47.278Z,6.19
2019-04-01T00:27:17.136Z,6.19
2019-04-01T00:27:47.351Z,6.19
2019-04-01T00:28:17.358Z,6.19
2019-04-01T00:28:47.372Z,6.19
2019-04-01T00:29:17.164Z,6.12
2019-04-01T00:29:49.415Z,6.19
2019-04-01T00:30:17.234Z,6.12
2019-04-01T00:30:47.298Z,6.12
2019-04-01T00:31:17.220Z,6.06
2019-04-01T00:31:47.589Z,6.12
2019-04-01T00:32:17.331Z,6.12
2019-04-01T00:32:47.395Z,6.12
2019-04-01T00:33:19.166Z,6.12
2019-04-01T00:33:47.264Z,6.12
2019-04-01T00:34:17.435Z,6.12
2019-04-01T00:34:47.342Z,6.12
2019-04-01T00:35:17.469Z,6.12
2019-04-01T00:35:47.649Z,6.19
2019-04-01T00:36:17.690Z,6.44
2019-04-01T00:36:47.480Z,6.56
2019-04-01T00:37:17.650Z,6.62
2019-04-01T00:37:47.548Z,7
2019-04-01T00:38:17.503Z,7.37
2019-04-01T00:38:47.692Z,7.94
2019-04-01T00:39:18.810Z,8.06
2019-04-01T00:39:47.653Z,8.13
2019-04-01T00:40:17.700Z,8.25
2019-04-01T00:40:47.605Z,8.31
2019-04-01T00:41:17.784Z,8.25
2019-04-01T00:41:47.634Z,8.25
2019-04-01T00:42:17.492Z,8.5
2019-04-01T00:42:48.969Z,8.63
2019-04-01T00:43:17.726Z,8.38
2019-04-01T00:43:47.735Z,8.31
2019-04-01T00:44:17.708Z,8.5
2019-04-01T00:44:48.527Z,8.44
2019-04-01T00:45:17.686Z,8.31
2019-04-01T00:45:47.675Z,8.5
2019-04-01T00:46:17.853Z,9.06
2019-04-01T00:46:47.818Z,9.44
2019-04-01T00:47:17.775Z,9.69
2019-04-01T00:47:48.999Z,10.06
2019-04-01T00:48:17.699Z,9.94
2019-04-01T00:48:47.776Z,10
2019-04-01T00:49:17.688Z,10.25
2019-04-01T00:49:47.903Z,10.31
2019-04-01T00:50:17.825Z,10.38
2019-04-01T00:50:47.691Z,10.25
2019-04-01T00:51:17.827Z,10.19
2019-04-01T00:51:47.919Z,10.19
2019-04-01T00:52:17.966Z,10.13
2019-04-01T00:52:47.852Z,10.13
2019-04-01T00:53:18.282Z,10.13
2019-04-01T00:53:47.848Z,10.06
2019-04-01T00:54:17.913Z,10
2019-04-01T00:54:47.863Z,9.94
2019-04-01T00:55:17.875Z,10
2019-04-01T00:55:48.103Z,10.06
2019-04-01T00:56:17.818Z,10
2019-04-01T00:56:47.944Z,9.88
2019-04-01T00:57:17.915Z,9.81
2019-04-01T00:57:47.989Z,9.69
2019-04-01T00:58:18.126Z,9.63
2019-04-01T00:58:48.402Z,9.5
2019-04-01T00:59:18.037Z,9.44
2019-04-01T00:59:48.094Z,9.44
2019-04-01T01:00:18.119Z,9.31
2019-04-01T01:00:48.208Z,9.25
2019-04-01T01:01:18.032Z,9.13
2019-04-01T01:01:48.003Z,9.06
2019-04-01T01:02:20.059Z,9
2019-04-01T01:02:48.160Z,8.94
2019-04-01T01:03:18.156Z,8.88
2019-04-01T01:03:48.201Z,8.81
2019-04-01T01:04:18.046Z,8.81
2019-04-01T01:04:48.261Z,8.88
2019-04-01T01:05:18.000Z,8.81
2019-04-01T01:05:50.394Z,8.75
2019-04-01T01:06:18.399Z,8.75
2019-04-01T01:06:48.019Z,8.75
2019-04-01T01:07:18.251Z,8.69
2019-04-01T01:07:50.616Z,8.69
2019-04-01T01:08:18.827Z,8.69
2019-04-01T01:08:48.266Z,8.69
2019-04-01T01:09:18.381Z,8.69
2019-04-01T01:09:48.397Z,8.63
2019-04-01T01:10:20.721Z,8.56
2019-04-01T01:10:48.310Z,8.44
2019-04-01T01:11:18.343Z,8.44
2019-04-01T01:11:49.376Z,8.5
2019-04-01T01:12:18.376Z,8.56
2019-04-01T01:12:48.429Z,8.56
2019-04-01T01:13:18.393Z,8.56
2019-04-01T01:13:48.370Z,8.5
2019-04-01T01:14:18.234Z,8.44
2019-04-01T01:14:48.401Z,8.31
2019-04-01T01:15:18.720Z,8.25
2019-04-01T01:15:48.483Z,8.25
2019-04-01T01:16:18.546Z,8.13
2019-04-01T01:16:48.682Z,8.13
2019-04-01T01:17:18.402Z,8.19
2019-04-01T01:17:48.502Z,8.19
2019-04-01T01:18:18.711Z,8.06
2019-04-01T01:18:48.578Z,7.94
2019-04-01T01:19:18.657Z,7.87
2019-04-01T01:19:48.539Z,7.81
2019-04-01T01:20:18.520Z,7.87
2019-04-01T01:20:50.158Z,7.87
2019-04-01T01:21:18.751Z,7.81
2019-04-01T01:21:48.623Z,7.87
2019-04-01T01:22:18.561Z,8
2019-04-01T01:22:48.570Z,8.06
2019-04-01T01:23:18.864Z,8.13
2019-04-01T01:23:48.624Z,8.19
2019-04-01T01:24:19.213Z,8.25
2019-04-01T01:24:48.728Z,8.25
2019-04-01T01:25:18.857Z,8.44
2019-04-01T01:25:48.716Z,8.63
2019-04-01T01:26:18.704Z,8.81
2019-04-01T01:26:48.913Z,8.81
2019-04-01T01:27:18.891Z,8.75
2019-04-01T01:27:48.742Z,8.63
2019-04-01T01:28:18.880Z,8.63
2019-04-01T01:28:48.721Z,8.5
2019-04-01T01:29:18.872Z,8.38
2019-04-01T01:29:48.831Z,8.38
2019-04-01T01:30:18.910Z,8.25
2019-04-01T01:30:48.823Z,8.25
2019-04-01T01:31:20.115Z,8.13
2019-04-01T01:31:48.769Z,8.06
2019-04-01T01:32:18.812Z,8.06
2019-04-01T01:32:48.822Z,8
2019-04-01T01:33:19.012Z,7.94
2019-04-01T01:33:49.095Z,7.87
2019-04-01T01:34:18.875Z,7.81
2019-04-01T01:34:50.634Z,7.75
2019-04-01T01:35:20.633Z,7.81
2019-04-01T01:35:49.316Z,7.81
2019-04-01T01:36:18.866Z,7.81
2019-04-01T01:36:48.886Z,7.75
2019-04-01T01:37:18.985Z,7.75
2019-04-01T01:37:48.953Z,7.75
2019-04-01T01:38:19.038Z,7.75
2019-04-01T01:38:48.940Z,7.81
2019-04-01T01:39:18.979Z,7.75
2019-04-01T01:39:49.068Z,7.69
2019-04-01T01:40:18.982Z,7.62
2019-04-01T01:40:49.902Z,7.56
2019-04-01T01:41:19.163Z,7.5
2019-04-01T01:41:49.137Z,7.5
2019-04-01T01:42:18.966Z,7.5
2019-04-01T01:42:49.058Z,7.5
2019-04-01T01:43:18.910Z,7.44
2019-04-01T01:43:49.125Z,7.5
2019-04-01T01:44:19.784Z,7.44
2019-04-01T01:44:49.445Z,7.5
2019-04-01T01:45:19.397Z,7.5
2019-04-01T01:45:49.393Z,7.5
2019-04-01T01:46:22.648Z,7.5
2019-04-01T01:46:49.463Z,7.44
2019-04-01T01:47:19.400Z,7.44
2019-04-01T01:47:49.426Z,7.5
2019-04-01T01:48:19.293Z,7.5
2019-04-01T01:48:49.354Z,7.5
2019-04-01T01:49:19.231Z,7.5
2019-04-01T01:49:49.466Z,7.56
2019-04-01T01:50:20.106Z,7.56
2019-04-01T01:50:49.266Z,7.56
2019-04-01T01:51:19.268Z,7.56
2019-04-01T01:51:49.371Z,7.56
2019-04-01T01:52:19.335Z,7.62
2019-04-01T01:52:49.259Z,7.62
2019-04-01T01:53:19.485Z,7.69
2019-04-01T01:53:49.274Z,7.62
2019-04-01T01:54:19.211Z,7.62
2019-04-01T01:54:49.362Z,7.62
2019-04-01T01:55:19.467Z,7.62
2019-04-01T01:55:49.610Z,7.56
2019-04-01T01:56:19.527Z,7.56
2019-04-01T01:56:49.603Z,7.56
2019-04-01T01:57:19.647Z,7.56
2019-04-01T01:57:49.425Z,7.62
2019-04-01T01:58:19.727Z,7.75
2019-04-01T01:58:49.659Z,7.75
2019-04-01T01:59:19.555Z,7.87
2019-04-01T01:59:49.518Z,7.81
2019-04-01T02:00:19.572Z,7.81
2019-04-01T02:00:49.417Z,7.75
2019-04-01T02:01:20.068Z,7.69
2019-04-01T02:01:49.613Z,7.62
2019-04-01T02:02:19.578Z,7.62
2019-04-01T02:02:49.435Z,7.69
2019-04-01T02:03:19.691Z,7.75
2019-04-01T02:03:51.616Z,7.81
2019-04-01T02:04:19.549Z,7.87
2019-04-01T02:04:49.706Z,8.06
2019-04-01T02:05:19.498Z,8.13
2019-04-01T02:05:49.450Z,8.13
2019-04-01T02:06:19.846Z,8.13
2019-04-01T02:06:49.679Z,8.13
2019-04-01T02:07:21.889Z,8.06
2019-04-01T02:07:49.645Z,7.94
2019-04-01T02:08:21.815Z,7.94
2019-04-01T02:08:49.662Z,7.94
2019-04-01T02:09:21.224Z,8
2019-04-01T02:09:49.672Z,7.94
2019-04-01T02:10:19.770Z,7.94
2019-04-01T02:10:49.756Z,8.06
2019-04-01T02:11:19.775Z,8
2019-04-01T02:11:49.808Z,8.06
2019-04-01T02:12:19.911Z,8.19
2019-04-01T02:12:49.858Z,8.06
2019-04-01T02:13:20.335Z,8
2019-04-01T02:13:49.833Z,8
2019-04-01T02:14:20.052Z,7.94
2019-04-01T02:14:49.999Z,7.94
2019-04-01T02:15:20.102Z,7.81
2019-04-01T02:15:49.991Z,7.81
2019-04-01T02:16:20.150Z,7.75
2019-04-01T02:16:50.027Z,7.69
2019-04-01T02:17:20.020Z,7.69
2019-04-01T02:17:50.289Z,7.62
2019-04-01T02:18:20.030Z,7.56
2019-04-01T02:18:49.953Z,7.56
2019-04-01T02:19:22.563Z,7.56
2019-04-01T02:19:50.128Z,7.56
2019-04-01T02:20:20.034Z,7.5
2019-04-01T02:20:50.090Z,7.5
2019-04-01T02:21:20.118Z,7.56
2019-04-01T02:21:50.040Z,7.56
2019-04-01T02:22:20.046Z,7.56
2019-04-01T02:22:50.306Z,7.56
2019-04-01T02:23:20.137Z,7.56
2019-04-01T02:23:50.250Z,7.5
2019-04-01T02:24:20.260Z,7.56
2019-04-01T02:24:50.337Z,7.62
2019-04-01T02:25:20.238Z,7.62
2019-04-01T02:25:50.203Z,7.62
2019-04-01T02:26:20.017Z,7.62
2019-04-01T02:26:52.617Z,7.75
2019-04-01T02:27:20.192Z,7.75
2019-04-01T02:27:50.166Z,7.69
2019-04-01T02:28:20.252Z,7.69
2019-04-01T02:28:50.360Z,7.81
2019-04-01T02:29:20.145Z,7.81
2019-04-01T02:29:50.745Z,7.75
2019-04-01T02:30:22.540Z,7.69
2019-04-01T02:30:50.344Z,7.75
2019-04-01T02:31:20.269Z,7.81
2019-04-01T02:31:50.274Z,7.87
2019-04-01T02:32:22.863Z,7.94
2019-04-01T02:32:51.179Z,8
2019-04-01T02:33:20.400Z,8
2019-04-01T02:33:50.242Z,8.06
2019-04-01T02:34:20.259Z,8.13
2019-04-01T02:34:50.390Z,8.06
2019-04-01T02:35:20.402Z,8.19
2019-04-01T02:35:50.455Z,8.31
2019-04-01T02:36:21.356Z,8.94
2019-04-01T02:36:50.386Z,9.06
2019-04-01T02:37:20.536Z,9.19
2019-04-01T02:37:50.613Z,9.44
2019-04-01T02:38:20.559Z,9.5
2019-04-01T02:38:50.703Z,9.69
2019-04-01T02:39:20.367Z,9.81
2019-04-01T02:39:50.534Z,9.94
2019-04-01T02:40:22.031Z,10
2019-04-01T02:40:53.287Z,10.06
2019-04-01T02:41:20.645Z,10
2019-04-01T02:41:50.740Z,10.13
2019-04-01T02:42:20.856Z,10.44
2019-04-01T02:42:50.679Z,10.44
2019-04-01T02:43:20.793Z,10.5
2019-04-01T02:43:50.762Z,10.44
2019-04-01T02:44:20.724Z,10.5
2019-04-01T02:44:50.523Z,10.44
2019-04-01T02:45:20.767Z,10.38
2019-04-01T02:45:50.846Z,10.38
2019-04-01T02:46:20.767Z,10.38
2019-04-01T02:46:50.713Z,10.38
2019-04-01T02:47:20.780Z,10.44
2019-04-01T02:47:51.327Z,10.25
2019-04-01T02:48:20.681Z,10.38
2019-04-01T02:48:50.715Z,10.31
2019-04-01T02:49:20.719Z,10.38
2019-04-01T02:49:50.637Z,10.44
2019-04-01T02:50:20.731Z,10.38
2019-04-01T02:50:50.859Z,10.25
2019-04-01T02:51:20.848Z,10.13
2019-04-01T02:51:51.014Z,10.06
2019-04-01T02:52:20.707Z,9.94
2019-04-01T02:52:50.888Z,9.94
2019-04-01T02:53:20.837Z,9.81
2019-04-01T02:53:50.849Z,9.69
2019-04-01T02:54:20.960Z,9.56
2019-04-01T02:54:50.864Z,9.5
2019-04-01T02:55:20.856Z,9.44
2019-04-01T02:55:53.193Z,9.44
2019-04-01T02:56:20.902Z,9.38
2019-04-01T02:56:50.782Z,9.31
2019-04-01T02:57:21.022Z,9.25
2019-04-01T02:57:50.967Z,9.19
2019-04-01T02:58:21.208Z,9.25
2019-04-01T02:58:50.837Z,9.19
2019-04-01T02:59:23.587Z,9.19
2019-04-01T02:59:51.162Z,9.19
2019-04-01T03:00:21.459Z,9.25
2019-04-01T03:00:51.116Z,9.19
2019-04-01T03:01:21.210Z,9.13
2019-04-01T03:01:51.027Z,9.13
2019-04-01T03:02:21.193Z,9.13
2019-04-01T03:02:51.454Z,9.06
2019-04-01T03:03:21.281Z,9.06
2019-04-01T03:03:51.149Z,9.06
2019-04-01T03:04:21.426Z,9.13
2019-04-01T03:04:51.043Z,9.31
2019-04-01T03:05:23.194Z,9.31
2019-04-01T03:05:51.041Z,9.19
2019-04-01T03:06:21.545Z,9.25
2019-04-01T03:06:52.644Z,9.13
2019-04-01T03:07:21.442Z,9.06
2019-04-01T03:07:51.195Z,8.94
2019-04-01T03:08:21.133Z,8.88
2019-04-01T03:08:52.705Z,8.81
2019-04-01T03:09:21.299Z,8.81
2019-04-01T03:09:51.099Z,8.81
2019-04-01T03:10:21.435Z,8.81
2019-04-01T03:10:53.046Z,8.81
2019-04-01T03:11:22.014Z,8.75
2019-04-01T03:11:51.256Z,8.75
2019-04-01T03:12:21.183Z,8.75
2019-04-01T03:12:51.338Z,8.81
2019-04-01T03:13:21.282Z,8.75
2019-04-01T03:13:51.406Z,8.69
2019-04-01T03:14:21.223Z,8.69
2019-04-01T03:14:53.207Z,8.69
2019-04-01T03:15:21.239Z,8.69
2019-04-01T03:15:51.181Z,8.69
2019-04-01T03:16:21.378Z,8.69
2019-04-01T03:16:51.160Z,8.63
2019-04-01T03:17:21.345Z,8.63
2019-04-01T03:17:51.352Z,8.63
2019-04-01T03:18:21.461Z,8.63
2019-04-01T03:18:51.438Z,8.75
2019-04-01T03:19:21.449Z,8.69
2019-04-01T03:19:51.352Z,8.63
2019-04-01T03:20:21.479Z,8.63
2019-04-01T03:20:51.391Z,8.56
2019-04-01T03:21:21.251Z,8.56
2019-04-01T03:21:51.237Z,8.56
2019-04-01T03:22:21.571Z,8.56
2019-04-01T03:22:51.356Z,8.5
2019-04-01T03:23:21.477Z,8.56
2019-04-01T03:23:51.450Z,8.63
2019-04-01T03:24:21.429Z,8.56
2019-04-01T03:24:51.442Z,8.56
2019-04-01T03:25:21.363Z,8.56
2019-04-01T03:25:53.055Z,8.69
2019-04-01T03:26:21.345Z,8.75
2019-04-01T03:26:51.530Z,8.81
2019-04-01T03:27:21.451Z,8.81
2019-04-01T03:27:51.618Z,8.75
2019-04-01T03:28:24.364Z,8.69
2019-04-01T03:28:51.375Z,8.69
2019-04-01T03:29:21.621Z,8.63
2019-04-01T03:29:51.738Z,8.63
2019-04-01T03:30:21.973Z,8.75
2019-04-01T03:30:51.515Z,8.69
2019-04-01T03:31:21.558Z,8.69
2019-04-01T03:31:54.452Z,8.69
2019-04-01T03:32:21.789Z,8.75
2019-04-01T03:32:51.853Z,8.69
2019-04-01T03:33:21.653Z,8.69
2019-04-01T03:33:54.146Z,8.75
2019-04-01T03:34:22.537Z,8.69
2019-04-01T03:34:51.647Z,8.69
2019-04-01T03:35:21.718Z,8.69
2019-04-01T03:35:51.786Z,8.63
2019-04-01T03:36:21.854Z,8.69
2019-04-01T03:36:54.350Z,8.81
2019-04-01T03:37:21.799Z,8.88
2019-04-01T03:37:52.565Z,9.31
2019-04-01T03:38:22.143Z,9.38
2019-04-01T03:38:51.814Z,9.5
2019-04-01T03:39:21.876Z,9.63
2019-04-01T03:39:52.039Z,9.5
2019-04-01T03:40:22.082Z,9.5
2019-04-01T03:40:51.879Z,9.63
2019-04-01T03:41:22.023Z,10
2019-04-01T03:41:51.935Z,10.38
2019-04-01T03:42:22.056Z,10.5
2019-04-01T03:42:51.988Z,10.63
2019-04-01T03:43:21.808Z,10.69
2019-04-01T03:43:52.306Z,10.69
2019-04-01T03:44:22.248Z,10.63
2019-04-01T03:44:54.972Z,10.56
2019-04-01T03:45:22.062Z,10.56
2019-04-01T03:45:52.097Z,10.63
2019-04-01T03:46:22.122Z,10.56
2019-04-01T03:46:52.304Z,10.5
2019-04-01T03:47:22.473Z,10.5
2019-04-01T03:47:54.759Z,10.5
2019-04-01T03:48:22.104Z,10.44
2019-04-01T03:48:52.359Z,10.38
2019-04-01T03:49:22.299Z,10.38
2019-04-01T03:49:52.290Z,10.38
2019-04-01T03:50:22.414Z,10.38
2019-04-01T03:50:52.210Z,10.38
2019-04-01T03:51:24.678Z,10.38
2019-04-01T03:51:52.160Z,10.38
2019-04-01T03:52:22.331Z,10.31
2019-04-01T03:52:52.272Z,10.31
2019-04-01T03:53:22.270Z,10.38
2019-04-01T03:53:52.410Z,10.44
2019-04-01T03:54:22.290Z,10.31
2019-04-01T03:54:54.665Z,10.25
2019-04-01T03:55:22.382Z,10.13
2019-04-01T03:55:52.506Z,9.94
2019-04-01T03:56:22.278Z,9.88
2019-04-01T03:56:54.547Z,9.75
2019-04-01T03:57:24.256Z,9.69
2019-04-01T03:57:52.275Z,9.63
2019-04-01T03:58:22.616Z,9.56
2019-04-01T03:58:54.562Z,9.56
2019-04-01T03:59:22.281Z,9.5
2019-04-01T03:59:53.295Z,9.5
2019-04-01T04:00:22.763Z,9.5
2019-04-01T04:00:54.099Z,9.44
2019-04-01T04:01:22.758Z,9.44
2019-04-01T04:01:52.518Z,9.44
2019-04-01T04:02:22.803Z,9.38
2019-04-01T04:02:52.574Z,9.38
2019-04-01T04:03:22.593Z,9.38
2019-04-01T04:03:52.575Z,9.31
2019-04-01T04:04:22.620Z,9.38
2019-04-01T04:04:52.579Z,9.38
2019-04-01T04:05:22.790Z,9.44
2019-04-01T04:05:52.632Z,9.38
2019-04-01T04:06:22.941Z,9.31
2019-04-01T04:06:52.821Z,9.31
2019-04-01T04:07:22.823Z,9.31
2019-04-01T04:07:52.911Z,9.38
2019-04-01T04:08:22.794Z,9.31
2019-04-01T04:08:52.833Z,9.38
2019-04-01T04:09:26.815Z,9.38
2019-04-01T04:09:54.780Z,9.31
2019-04-01T04:10:23.938Z,9.19
2019-04-01T04:10:52.760Z,9.13
2019-04-01T04:11:22.875Z,9
2019-04-01T04:11:52.839Z,8.94
2019-04-01T04:12:22.959Z,8.94
2019-04-01T04:12:52.829Z,8.88
2019-04-01T04:13:22.818Z,8.88
2019-04-01T04:13:52.939Z,8.94
2019-04-01T04:14:22.931Z,9
2019-04-01T04:14:52.974Z,9.06
2019-04-01T04:15:22.978Z,9
2019-04-01T04:15:52.845Z,8.94
2019-04-01T04:16:22.948Z,9
2019-04-01T04:16:52.990Z,8.94
2019-04-01T04:17:22.978Z,8.88
2019-04-01T04:17:53.035Z,8.94
2019-04-01T04:18:23.186Z,8.94
2019-04-01T04:18:53.108Z,8.81
2019-04-01T04:19:23.002Z,8.81
2019-04-01T04:19:56.046Z,8.75
2019-04-01T04:20:24.715Z,8.69
2019-04-01T04:20:53.145Z,8.69
2019-04-01T04:21:24.005Z,8.69
2019-04-01T04:21:53.140Z,8.63
2019-04-01T04:22:22.990Z,8.63
2019-04-01T04:22:52.974Z,8.63
2019-04-01T04:23:23.182Z,8.56
2019-04-01T04:23:54.793Z,8.56
2019-04-01T04:24:23.103Z,8.56
2019-04-01T04:24:53.053Z,8.56
2019-04-01T04:25:23.056Z,8.56
2019-04-01T04:25:53.190Z,8.69
2019-04-01T04:26:22.989Z,8.81
2019-04-01T04:26:53.103Z,8.88
2019-04-01T04:27:23.165Z,8.88
2019-04-01T04:27:52.971Z,8.81
2019-04-01T04:28:23.282Z,8.75
2019-04-01T04:28:53.159Z,8.75
2019-04-01T04:29:23.125Z,8.69
2019-04-01T04:29:54.060Z,8.69
2019-04-01T04:30:23.138Z,8.63
2019-04-01T04:30:53.233Z,8.63
2019-04-01T04:31:23.186Z,8.63
2019-04-01T04:31:55.213Z,8.63
2019-04-01T04:32:22.970Z,8.56
2019-04-01T04:32:53.029Z,8.56
2019-04-01T04:33:23.957Z,8.56
2019-04-01T04:33:53.312Z,8.56
2019-04-01T04:34:23.378Z,8.75
2019-04-01T04:34:56.702Z,8.75
2019-04-01T04:35:24.306Z,8.88
2019-04-01T04:35:53.497Z,8.88
2019-04-01T04:36:23.332Z,8.75
2019-04-01T04:36:53.348Z,8.75
2019-04-01T04:37:23.341Z,8.69
2019-04-01T04:37:53.408Z,8.69
2019-04-01T04:38:23.409Z,8.69
2019-04-01T04:38:53.350Z,8.63
2019-04-01T04:39:23.523Z,8.63
2019-04-01T04:39:53.230Z,8.63
2019-04-01T04:40:23.247Z,8.56
2019-04-01T04:40:53.505Z,8.56
2019-04-01T04:41:23.246Z,8.5
2019-04-01T04:41:53.517Z,8.63
2019-04-01T04:42:23.739Z,8.63
2019-04-01T04:42:54.796Z,8.63
2019-04-01T04:43:25.624Z,8.75
2019-04-01T04:43:53.625Z,8.81
2019-04-01T04:44:23.422Z,8.88
2019-04-01T04:44:53.508Z,8.94
2019-04-01T04:45:23.479Z,8.94
2019-04-01T04:45:53.469Z,8.94
2019-04-01T04:46:23.442Z,8.88
2019-04-01T04:46:56.225Z,8.94
2019-04-01T04:47:23.546Z,9
2019-04-01T04:47:53.625Z,9.06
2019-04-01T04:48:23.655Z,9.25
2019-04-01T04:48:53.623Z,9.31
2019-04-01T04:49:23.779Z,9.38
2019-04-01T04:49:53.615Z,9.38
2019-04-01T04:50:23.706Z,9.38
2019-04-01T04:50:53.698Z,9.25
2019-04-01T04:51:23.802Z,9.19
2019-04-01T04:51:53.679Z,9.13
2019-04-01T04:52:23.799Z,9
2019-04-01T04:52:54.576Z,9
2019-04-01T04:53:24.044Z,8.94
2019-04-01T04:53:53.816Z,8.94
2019-04-01T04:54:23.940Z,8.94
2019-04-01T04:54:53.976Z,8.88
2019-04-01T04:55:23.749Z,8.88
2019-04-01T04:55:53.787Z,8.75
2019-04-01T04:56:24.352Z,8.69
2019-04-01T04:56:53.836Z,8.69
2019-04-01T04:57:23.723Z,8.69
2019-04-01T04:57:53.861Z,8.69
2019-04-01T04:58:24.960Z,8.69
2019-04-01T04:58:53.841Z,8.75
2019-04-01T04:59:23.885Z,8.81
2019-04-01T04:59:53.971Z,8.94
2019-04-01T05:00:23.948Z,9.06
2019-04-01T05:00:53.884Z,9.25
2019-04-01T05:01:23.782Z,9.38
2019-04-01T05:01:53.907Z,9.38
2019-04-01T05:02:24.665Z,9.31
2019-04-01T05:02:53.862Z,9.19
2019-04-01T05:03:24.062Z,9.06
2019-04-01T05:03:53.913Z,9
2019-04-01T05:04:25.791Z,8.94
2019-04-01T05:04:54.032Z,8.88
2019-04-01T05:05:23.891Z,8.88
2019-04-01T05:05:53.997Z,8.94
2019-04-01T05:06:24.057Z,8.88
2019-04-01T05:06:54.156Z,8.88
2019-04-01T05:07:24.186Z,8.81
2019-04-01T05:07:54.090Z,8.75
2019-04-01T05:08:24.217Z,8.69
2019-04-01T05:08:54.282Z,8.69
2019-04-01T05:09:24.004Z,8.63
2019-04-01T05:09:54.177Z,8.63
2019-04-01T05:10:24.003Z,8.63
2019-04-01T05:10:54.203Z,8.63
2019-04-01T05:11:24.207Z,8.69
2019-04-01T05:11:54.008Z,8.69
2019-04-01T05:12:24.008Z,8.63
2019-04-01T05:12:54.316Z,8.56
2019-04-01T05:13:24.371Z,8.63
2019-04-01T05:13:54.372Z,8.69
2019-04-01T05:14:24.415Z,8.69
2019-04-01T05:14:54.335Z,8.69
2019-04-01T05:15:26.385Z,8.75
2019-04-01T05:15:56.439Z,8.81
2019-04-01T05:16:24.392Z,8.88
2019-04-01T05:16:54.329Z,9
2019-04-01T05:17:24.347Z,9
2019-04-01T05:17:54.382Z,9.06
2019-04-01T05:18:24.301Z,9.38
2019-04-01T05:18:54.365Z,9.88
2019-04-01T05:19:26.326Z,10.06
2019-04-01T05:19:54.540Z,10.19
2019-04-01T05:20:24.384Z,10.5
2019-04-01T05:20:54.589Z,10.63
2019-04-01T05:21:26.429Z,11.19
2019-04-01T05:21:55.503Z,11.44
2019-04-01T05:22:24.473Z,11.5
2019-04-01T05:22:54.317Z,11.5
2019-04-01T05:23:24.499Z,11.5
2019-04-01T05:23:54.272Z,11.5
2019-04-01T05:24:24.489Z,11.31
2019-04-01T05:24:54.736Z,11.19
2019-04-01T05:25:25.450Z,11.06
2019-04-01T05:25:54.384Z,11
2019-04-01T05:26:24.955Z,10.94
2019-04-01T05:26:54.581Z,11
2019-04-01T05:27:24.630Z,11.25
2019-04-01T05:27:54.557Z,11.12
2019-04-01T05:28:24.358Z,11.12
2019-04-01T05:28:54.428Z,11.12
2019-04-01T05:29:24.550Z,11.19
2019-04-01T05:29:54.501Z,11.25
2019-04-01T05:30:24.580Z,11.19
2019-04-01T05:30:54.680Z,11.25
2019-04-01T05:31:24.475Z,11.25
2019-04-01T05:31:54.739Z,11.19
2019-04-01T05:32:24.627Z,11.12
2019-04-01T05:32:54.580Z,11.06
2019-04-01T05:33:24.668Z,10.94
2019-04-01T05:33:55.788Z,11
2019-04-01T05:34:24.857Z,10.94
2019-04-01T05:34:54.739Z,10.75
2019-04-01T05:35:24.731Z,10.69
2019-04-01T05:35:54.833Z,10.69
2019-04-01T05:36:24.851Z,10.69
2019-04-01T05:36:54.978Z,10.69
2019-04-01T05:37:26.769Z,10.75
2019-04-01T05:37:54.814Z,10.75
2019-04-01T05:38:24.874Z,10.69
2019-04-01T05:38:54.748Z,10.56
2019-04-01T05:39:24.952Z,10.5
2019-04-01T05:39:54.703Z,10.5
2019-04-01T05:40:24.803Z,10.56
2019-04-01T05:40:54.909Z,10.75
2019-04-01T05:41:24.909Z,11
2019-04-01T05:41:54.687Z,10.94
2019-04-01T05:42:24.951Z,10.75
2019-04-01T05:42:54.832Z,10.63
2019-04-01T05:43:24.907Z,11.12
2019-04-01T05:43:54.917Z,11.19
2019-04-01T05:44:24.975Z,11.06
2019-04-01T05:44:56.524Z,11.31
2019-04-01T05:45:24.984Z,11.38
2019-04-01T05:45:55.039Z,11.25
2019-04-01T05:46:24.814Z,11.19
2019-04-01T05:46:54.919Z,11.19
2019-04-01T05:47:24.822Z,11.44
2019-04-01T05:47:55.354Z,11.44
2019-04-01T05:48:27.551Z,11.38
2019-04-01T05:48:54.911Z,11.25
2019-04-01T05:49:25.037Z,11.19
2019-04-01T05:49:54.947Z,11.25
2019-04-01T05:50:25.045Z,11.19
2019-04-01T05:50:54.931Z,11.12
2019-04-01T05:51:25.166Z,11
2019-04-01T05:51:55.211Z,10.94
2019-04-01T05:52:25.133Z,10.88
2019-04-01T05:52:54.953Z,10.81
2019-04-01T05:53:25.092Z,10.81
2019-04-01T05:53:55.162Z,10.75
2019-04-01T05:54:26.560Z,10.75
2019-04-01T05:54:55.030Z,10.69
2019-04-01T05:55:25.046Z,10.75
2019-04-01T05:55:55.142Z,10.75
2019-04-01T05:56:25.216Z,10.69
2019-04-01T05:56:55.505Z,10.63
2019-04-01T05:57:25.342Z,10.56
2019-04-01T05:57:56.283Z,10.63
2019-04-01T05:58:25.299Z,10.56
2019-04-01T05:58:55.415Z,10.5
2019-04-01T05:59:27.275Z,10.5
2019-04-01T05:59:55.499Z,10.56
2019-04-01T06:00:25.448Z,10.56
2019-04-01T06:00:55.435Z,10.63
2019-04-01T06:01:25.393Z,10.63
2019-04-01T06:01:55.513Z,10.56
2019-04-01T06:02:25.383Z,10.56
2019-04-01T06:02:55.482Z,10.44
2019-04-01T06:03:25.452Z,10.44
2019-04-01T06:03:55.377Z,10.56
2019-04-01T06:04:25.594Z,10.69
2019-04-01T06:04:55.534Z,10.63
2019-04-01T06:05:25.627Z,10.56
2019-04-01T06:05:55.722Z,10.63
2019-04-01T06:06:25.594Z,10.56
2019-04-01T06:06:55.897Z,10.63
2019-04-01T06:07:28.714Z,10.75
2019-04-01T06:07:57.022Z,10.81
2019-04-01T06:08:25.431Z,10.88
2019-04-01T06:08:55.510Z,10.69
2019-04-01T06:09:25.548Z,10.69
2019-04-01T06:09:55.421Z,10.63
2019-04-01T06:10:26.111Z,10.63
2019-04-01T06:10:55.495Z,10.69
2019-04-01T06:11:26.970Z,10.63
2019-04-01T06:11:55.566Z,10.69
2019-04-01T06:12:25.724Z,10.69
2019-04-01T06:12:55.553Z,10.63
2019-04-01T06:13:25.600Z,10.63
2019-04-01T06:13:55.587Z,10.75
2019-04-01T06:14:25.676Z,10.75
2019-04-01T06:14:55.606Z,10.75
2019-04-01T06:15:25.731Z,10.75
2019-04-01T06:15:55.744Z,10.81
2019-04-01T06:16:25.832Z,10.81
2019-04-01T06:16:55.704Z,10.81
2019-04-01T06:17:26.202Z,10.75
2019-04-01T06:17:55.587Z,10.75
2019-04-01T06:18:26.052Z,10.75
2019-04-01T06:18:55.790Z,10.63
2019-04-01T06:19:25.943Z,10.63
2019-04-01T06:19:55.770Z,10.63
2019-04-01T06:20:25.608Z,10.81
2019-04-01T06:20:55.955Z,10.88
2019-04-01T06:21:25.736Z,10.81
2019-04-01T06:21:57.847Z,10.88
2019-04-01T06:22:25.747Z,10.88
2019-04-01T06:22:55.990Z,10.75
2019-04-01T06:23:25.918Z,10.75
2019-04-01T06:23:55.760Z,10.69
2019-04-01T06:24:25.825Z,10.69
2019-04-01T06:24:57.878Z,10.75
2019-04-01T06:25:25.959Z,10.69
2019-04-01T06:25:56.036Z,10.69
2019-04-01T06:26:26.086Z,10.69
2019-04-01T06:26:56.061Z,10.69
2019-04-01T06:27:26.413Z,10.69
2019-04-01T06:27:55.715Z,10.75
2019-04-01T06:28:28.496Z,10.63
2019-04-01T06:28:56.006Z,10.69
2019-04-01T06:29:25.933Z,10.88
2019-04-01T06:29:59.106Z,11.12
2019-04-01T06:30:26.997Z,11.44
2019-04-01T06:30:55.872Z,11.44
2019-04-01T06:31:26.078Z,11.31
2019-04-01T06:31:55.887Z,11.19
2019-04-01T06:32:25.964Z,11.12
2019-04-01T06:32:58.409Z,11.06
2019-04-01T06:33:26.171Z,11.12
2019-04-01T06:33:56.268Z,11.12
2019-04-01T06:34:26.358Z,11.06
2019-04-01T06:34:56.155Z,11
2019-04-01T06:35:26.121Z,10.94
2019-04-01T06:35:56.207Z,11
2019-04-01T06:36:26.047Z,10.94
2019-04-01T06:36:55.938Z,10.94
2019-04-01T06:37:26.005Z,10.88
2019-04-01T06:37:58.111Z,10.94